createdAt,value
2023-03-05T00:02:17.104Z,13.70
2023-03-05T00:04:43.464Z,13.68
2023-03-05T00:07:12.332Z,13.98
2023-03-05T00:09:38.760Z,14.07
2023-03-05T00:12:05.375Z,12.82
2023-03-05T00:14:31.697Z,12.95
2023-03-05T00:16:58.024Z,12.73
2023-03-05T00:19:24.369Z,13.23
2023-03-05T00:21:50.691Z,12.70
2023-03-05T00:24:18.272Z,13.23
2023-03-05T00:26:45.107Z,13.15
2023-03-05T00:29:14.263Z,12.60
2023-03-05T00:31:40.719Z,12.77
2023-03-05T00:34:09.181Z,14.90
2023-03-05T00:36:35.625Z,15.70
2023-03-05T00:39:02.048Z,13.80
2023-03-05T00:41:28.456Z,12.85
2023-03-05T00:43:55.107Z,12.85
2023-03-05T00:46:21.895Z,13.77
2023-03-05T00:48:48.344Z,14.43
2023-03-05T00:51:14.744Z,13.90
2023-03-05T00:53:41.124Z,13.85
2023-03-05T00:56:07.493Z,13.65
2023-03-05T00:58:34.026Z,13.82
2023-03-05T01:01:01.467Z,14.02
2023-03-05T01:03:28.297Z,13.98
2023-03-05T01:05:54.659Z,13.60
2023-03-05T01:08:21.041Z,13.85
2023-03-05T01:10:47.609Z,13.65
2023-03-05T01:13:14.988Z,14.30
2023-03-05T01:15:41.620Z,14.60
2023-03-05T01:18:07.951Z,13.95
2023-03-05T01:20:34.294Z,13.70
2023-03-05T01:23:01.752Z,14.63
2023-03-05T01:25:28.632Z,14.60
2023-03-05T01:27:55.003Z,14.13
2023-03-05T01:30:21.329Z,14.57
2023-03-05T01:32:47.737Z,15.05
2023-03-05T01:35:18.968Z,14.57
2023-03-05T01:37:45.556Z,14.68
2023-03-05T01:40:12.822Z,14.80
2023-03-05T01:42:39.264Z,14.35
2023-03-05T01:45:10.349Z,15.30
2023-03-05T01:47:37.119Z,14.32
2023-03-05T01:50:04.415Z,14.15
2023-03-05T01:52:32.175Z,15.32
2023-03-05T01:55:03.806Z,14.32
2023-03-05T01:57:30.199Z,14.38
2023-03-05T01:59:58.085Z,14.20
2023-03-05T02:02:24.956Z,14.90
2023-03-05T02:04:54.796Z,15.32
2023-03-05T02:07:21.695Z,15.07
2023-03-05T02:09:48.108Z,14.95
2023-03-05T02:12:14.997Z,15.05
2023-03-05T02:14:42.433Z,14.82
2023-03-05T02:17:10.118Z,15.65
2023-03-05T02:19:56.120Z,15.75
2023-03-05T02:22:23.282Z,14.75
2023-03-05T02:24:49.748Z,15.53
2023-03-05T02:27:16.577Z,15.32
2023-03-05T02:29:44.660Z,14.82
2023-03-05T02:32:11.510Z,16.15
2023-03-05T02:34:37.882Z,15.65
2023-03-05T02:37:04.700Z,15.77
2023-03-05T02:39:31.659Z,16.83
2023-03-05T02:41:58.004Z,15.98
2023-03-05T02:44:24.410Z,15.68
2023-03-05T02:46:50.770Z,16.13
2023-03-05T02:49:17.132Z,16.40
2023-03-05T02:51:43.447Z,16.02
2023-03-05T02:54:09.804Z,15.02
2023-03-05T02:56:38.178Z,15.38
2023-03-05T02:59:04.505Z,15.20
2023-03-05T03:01:30.933Z,15.55
2023-03-05T03:03:57.350Z,16.88
2023-03-05T03:06:23.717Z,16.67
2023-03-05T03:08:50.047Z,16.48
2023-03-05T03:11:17.600Z,16.33
2023-03-05T03:13:44.305Z,16.60
2023-03-05T03:16:12.078Z,16.75
2023-03-05T03:18:38.588Z,16.08
2023-03-05T03:21:05.418Z,16.45
2023-03-05T03:23:31.952Z,16.70
2023-03-05T03:25:58.845Z,16.30
2023-03-05T03:28:25.224Z,16.50
2023-03-05T03:30:51.742Z,16.40
2023-03-05T03:33:18.255Z,16.50
2023-03-05T03:35:45.871Z,16.95
2023-03-05T03:38:13.721Z,16.70
2023-03-05T03:40:41.139Z,15.60
2023-03-05T03:43:07.976Z,16.08
2023-03-05T03:45:34.399Z,18.38
2023-03-05T03:48:00.728Z,17.42
2023-03-05T03:50:27.075Z,17.83
2023-03-05T03:52:53.451Z,17.73
2023-03-05T03:55:19.785Z,17.63
2023-03-05T03:57:46.089Z,17.90
2023-03-05T04:00:12.736Z,17.10
2023-03-05T04:02:39.207Z,18.00
2023-03-05T04:05:05.766Z,16.83
2023-03-05T04:07:32.092Z,18.55
2023-03-05T04:09:58.419Z,18.45
2023-03-05T04:12:24.727Z,19.20
2023-03-05T04:14:51.176Z,23.98
2023-03-05T04:17:17.506Z,22.63
2023-03-05T04:19:44.911Z,20.10
2023-03-05T04:22:12.209Z,20.08
2023-03-05T04:24:38.776Z,19.50
2023-03-05T04:27:05.502Z,18.60
2023-03-05T04:29:32.332Z,18.40
2023-03-05T04:31:58.844Z,18.83
2023-03-05T04:34:25.284Z,19.35
2023-03-05T04:36:51.798Z,19.45
2023-03-05T04:39:20.873Z,18.85
2023-03-05T04:41:47.929Z,19.33
2023-03-05T04:44:14.392Z,19.73
2023-03-05T04:46:40.831Z,19.48
2023-03-05T04:49:07.158Z,19.40
2023-03-05T04:51:33.463Z,19.42
2023-03-05T04:53:59.787Z,18.80
2023-03-05T04:56:26.142Z,17.35
2023-03-05T04:58:52.472Z,19.83
2023-03-05T05:01:18.886Z,17.67
2023-03-05T05:03:45.251Z,19.15
2023-03-05T05:06:11.570Z,19.55
2023-03-05T05:08:38.215Z,18.13
2023-03-05T05:11:05.837Z,18.15
2023-03-05T05:13:32.685Z,18.73
2023-03-05T05:15:59.131Z,18.42
2023-03-05T05:18:25.677Z,18.95
2023-03-05T05:20:52.299Z,19.73
2023-03-05T05:23:18.919Z,20.48
2023-03-05T05:25:45.644Z,21.27
2023-03-05T05:28:12.667Z,22.38
2023-03-05T05:30:39.135Z,21.30
2023-03-05T05:33:05.461Z,21.15
2023-03-05T05:35:31.827Z,20.05
2023-03-05T05:37:58.163Z,21.15
2023-03-05T05:40:24.483Z,20.00
2023-03-05T05:42:50.979Z,20.40
2023-03-05T05:45:17.408Z,17.80
2023-03-05T05:47:43.836Z,16.13
2023-03-05T05:50:11.143Z,15.23
2023-03-05T05:52:37.505Z,13.80
2023-03-05T05:55:03.995Z,13.55
2023-03-05T05:57:30.316Z,14.30
2023-03-05T05:59:56.652Z,14.13
2023-03-05T06:02:23.183Z,12.10
2023-03-05T06:04:49.565Z,11.43
2023-03-05T06:07:15.920Z,9.48
2023-03-05T06:09:42.245Z,8.70
2023-03-05T06:12:08.654Z,7.88
2023-03-05T06:14:35.011Z,6.78
2023-03-05T06:17:01.452Z,7.38
2023-03-05T06:19:27.829Z,7.28
2023-03-05T06:21:54.411Z,7.00
2023-03-05T06:24:20.755Z,7.07
2023-03-05T06:26:48.558Z,6.55
2023-03-05T06:29:15.174Z,7.18
2023-03-05T06:31:41.497Z,5.90
2023-03-05T06:34:07.977Z,5.40
2023-03-05T06:36:34.389Z,4.80
2023-03-05T06:39:00.816Z,5.00
2023-03-05T06:41:28.266Z,4.85
2023-03-05T06:43:55.119Z,5.22
2023-03-05T06:46:25.652Z,4.80
2023-03-05T06:48:52.737Z,5.03
2023-03-05T06:51:20.826Z,4.85
2023-03-05T06:56:16.742Z,4.85
2023-03-05T06:58:43.835Z,4.85
2023-03-05T07:01:10.207Z,4.80
2023-03-05T07:03:37.018Z,4.47
2023-03-05T07:06:07.128Z,4.45
2023-03-05T07:08:33.451Z,4.93
2023-03-05T07:11:00.119Z,5.07
2023-03-05T07:13:26.569Z,4.75
2023-03-05T07:15:53.109Z,4.75
2023-03-05T07:18:19.485Z,4.70
2023-03-05T07:20:45.896Z,4.70
2023-03-05T07:23:12.263Z,4.55
2023-03-05T07:25:39.111Z,5.30
2023-03-05T07:28:06.415Z,5.07
2023-03-05T07:30:33.262Z,4.10
2023-03-05T07:32:59.594Z,4.35
2023-03-05T07:35:26.277Z,3.97
2023-03-05T07:37:54.470Z,4.32
2023-03-05T07:40:21.889Z,4.65
2023-03-05T07:42:48.211Z,4.55
2023-03-05T07:45:14.541Z,4.57
2023-03-05T07:47:40.899Z,4.70
2023-03-05T07:50:07.486Z,4.30
2023-03-05T07:52:33.832Z,4.22
2023-03-05T07:55:00.246Z,3.88
2023-03-05T07:57:26.575Z,3.38
2023-03-05T07:59:52.901Z,3.83
2023-03-05T08:02:20.106Z,3.75
2023-03-05T08:04:46.470Z,3.65
2023-03-05T08:07:14.778Z,4.00
2023-03-05T08:09:42.808Z,3.78
2023-03-05T08:14:37.114Z,3.55
2023-03-05T08:17:06.421Z,3.50
2023-03-05T08:19:33.259Z,3.92
2023-03-05T08:22:00.033Z,3.40
2023-03-05T08:24:29.630Z,4.65
2023-03-05T08:26:57.385Z,4.95
2023-03-05T08:29:24.135Z,4.60
2023-03-05T08:31:51.519Z,5.93
2023-03-05T08:34:17.910Z,4.65
2023-03-05T08:36:44.218Z,5.50
2023-03-05T08:39:10.648Z,5.05
2023-03-05T08:41:37.051Z,5.63
2023-03-05T08:44:03.798Z,5.43
2023-03-05T08:46:30.389Z,6.75
2023-03-05T08:48:56.757Z,4.90
2023-03-05T08:51:27.002Z,4.43
2023-03-05T08:53:54.710Z,4.45
2023-03-05T08:56:21.254Z,4.63
2023-03-05T08:58:48.276Z,4.30
2023-03-05T09:01:15.092Z,4.53
2023-03-05T09:03:41.591Z,4.25
2023-03-05T09:06:09.025Z,4.72
2023-03-05T09:08:35.997Z,4.85
2023-03-05T09:11:03.009Z,4.63
2023-03-05T09:13:29.430Z,5.00
2023-03-05T09:15:57.021Z,3.65
2023-03-05T09:18:23.460Z,3.60
2023-03-05T09:20:49.852Z,4.25
2023-03-05T09:23:16.192Z,4.07
2023-03-05T09:25:42.620Z,4.75
2023-03-05T09:28:08.985Z,4.13
2023-03-05T09:30:35.665Z,4.55
2023-03-05T09:33:02.546Z,4.80
2023-03-05T09:35:29.007Z,4.55
2023-03-05T09:37:55.347Z,4.18
2023-03-05T09:40:22.083Z,4.28
2023-03-05T09:42:48.425Z,4.60
2023-03-05T09:45:28.479Z,4.50
2023-03-05T09:47:59.596Z,4.13
2023-03-05T09:50:48.153Z,4.00
2023-03-05T09:53:27.672Z,5.30
2023-03-05T09:55:58.727Z,4.50
2023-03-05T09:58:37.199Z,4.22
2023-03-05T10:01:27.124Z,4.75
2023-03-05T10:04:01.893Z,3.95
2023-03-05T10:06:32.112Z,4.43
2023-03-05T10:09:03.284Z,4.22
2023-03-05T10:11:45.104Z,4.35
2023-03-05T10:14:13.918Z,5.07
2023-03-05T10:16:43.212Z,5.25
2023-03-05T10:19:14.040Z,5.55
2023-03-05T10:21:47.054Z,5.43
2023-03-05T10:24:31.291Z,5.75
2023-03-05T10:26:59.950Z,5.47
2023-03-05T10:29:32.585Z,4.65
2023-03-05T10:32:05.053Z,4.43
2023-03-05T10:34:34.352Z,4.53
2023-03-05T10:37:10.015Z,4.53
2023-03-05T10:39:54.769Z,4.40
2023-03-05T10:42:39.965Z,4.40
2023-03-05T10:45:15.136Z,5.30
2023-03-05T10:47:41.473Z,6.78
2023-03-05T10:50:16.052Z,5.50
2023-03-05T10:52:46.623Z,9.48
2023-03-05T10:55:17.704Z,7.60
2023-03-05T10:57:44.143Z,7.47
2023-03-05T11:00:21.251Z,4.03
2023-03-05T11:02:58.329Z,13.80
2023-03-05T11:05:53.949Z,7.38
2023-03-05T11:08:25.113Z,5.13
2023-03-05T11:11:10.088Z,5.65
2023-03-05T11:13:38.296Z,5.15
2023-03-05T11:16:05.706Z,5.07
2023-03-05T11:18:34.770Z,4.47
2023-03-05T11:21:09.060Z,4.20
2023-03-05T11:23:35.678Z,4.40
2023-03-05T11:26:08.058Z,4.55
2023-03-05T11:28:54.909Z,5.05
2023-03-05T11:31:24.387Z,16.38
2023-03-05T11:33:58.784Z,18.17
2023-03-05T11:36:25.172Z,14.18
2023-03-05T11:38:56.671Z,14.18
2023-03-05T11:41:43.969Z,20.77
2023-03-05T11:44:14.916Z,4.65
2023-03-05T11:46:43.394Z,16.35
2023-03-05T11:49:12.714Z,6.00
2023-03-05T11:51:45.498Z,4.50
2023-03-05T11:54:18.031Z,4.93
2023-03-05T11:56:45.610Z,14.43
2023-03-05T11:59:14.491Z,24.83
2023-03-05T12:01:46.605Z,13.23
2023-03-05T12:04:13.585Z,22.40
2023-03-05T12:06:48.332Z,8.60
2023-03-05T12:09:28.409Z,14.82
2023-03-05T12:11:58.337Z,11.98
2023-03-05T12:14:27.800Z,8.88
2023-03-05T12:17:13.116Z,14.13
2023-03-05T12:19:51.440Z,10.82
2023-03-05T12:22:31.708Z,20.13
2023-03-05T12:25:17.651Z,23.35
2023-03-05T12:27:44.054Z,32.85
2023-03-05T12:30:30.728Z,23.10
2023-03-05T12:32:57.077Z,22.27
2023-03-05T12:35:25.082Z,26.35
2023-03-05T12:37:51.528Z,14.65
2023-03-05T12:40:17.842Z,9.77
2023-03-05T12:43:03.578Z,6.82
2023-03-05T12:45:31.142Z,7.35
2023-03-05T12:47:57.505Z,13.43
2023-03-05T12:50:27.083Z,33.20
2023-03-05T12:52:57.923Z,16.42
2023-03-05T12:55:28.292Z,17.38
2023-03-05T12:57:58.506Z,21.90
2023-03-05T13:00:27.209Z,21.25
2023-03-05T13:02:58.752Z,13.95
2023-03-05T13:05:36.455Z,18.83
2023-03-05T13:08:31.563Z,16.67
2023-03-05T13:11:00.204Z,14.93
2023-03-05T13:13:28.457Z,15.77
2023-03-05T13:15:56.271Z,23.75
2023-03-05T13:18:29.456Z,9.57
2023-03-05T13:21:04.547Z,21.15
2023-03-05T13:23:32.427Z,11.52
2023-03-05T13:26:11.110Z,7.40
2023-03-05T13:28:39.326Z,28.30
2023-03-05T13:31:13.283Z,29.00
2023-03-05T13:33:39.826Z,30.75
2023-03-05T13:36:06.574Z,9.52
2023-03-05T13:38:37.812Z,5.90
2023-03-05T13:41:06.264Z,9.27
2023-03-05T13:43:32.669Z,8.80
2023-03-05T13:45:59.589Z,9.70
2023-03-05T13:48:27.496Z,7.80
2023-03-05T13:50:56.006Z,6.20
2023-03-05T13:53:26.939Z,7.88
2023-03-05T13:55:55.994Z,25.10
2023-03-05T13:58:40.367Z,20.50
2023-03-05T14:01:14.950Z,18.33
2023-03-05T14:03:41.447Z,12.50
2023-03-05T14:06:09.504Z,13.13
2023-03-05T14:08:35.939Z,12.10
2023-03-05T14:11:11.990Z,11.45
2023-03-05T14:13:38.349Z,10.13
2023-03-05T14:16:06.161Z,12.27
2023-03-05T14:18:32.627Z,9.52
2023-03-05T14:21:03.863Z,6.25
2023-03-05T14:23:34.982Z,9.25
2023-03-05T14:26:19.997Z,8.48
2023-03-05T14:29:00.469Z,9.40
2023-03-05T14:31:28.372Z,9.07
2023-03-05T14:36:30.480Z,6.78
2023-03-05T14:38:57.271Z,9.38
2023-03-05T14:41:42.234Z,12.57
2023-03-05T14:44:12.884Z,9.15
2023-03-05T14:46:39.498Z,7.80
2023-03-05T14:49:05.912Z,11.15
2023-03-05T14:51:34.440Z,6.68
2023-03-05T14:54:00.769Z,6.00
2023-03-05T14:56:27.778Z,6.35
2023-03-05T14:58:54.320Z,7.07
2023-03-05T15:01:20.714Z,7.70
2023-03-05T15:03:47.075Z,8.50
2023-03-05T15:06:33.303Z,7.60
2023-03-05T15:09:00.295Z,6.88
2023-03-05T15:11:26.721Z,6.87
2023-03-05T15:13:53.024Z,5.68
2023-03-05T15:16:19.800Z,6.45
2023-03-05T15:18:46.188Z,5.65
2023-03-05T15:21:12.503Z,4.88
2023-03-05T15:23:38.942Z,6.03
2023-03-05T15:26:07.297Z,8.00
2023-03-05T15:28:35.100Z,10.60
2023-03-05T15:31:02.083Z,7.50
2023-03-05T15:33:28.655Z,9.03
2023-03-05T15:35:55.221Z,8.00
2023-03-05T15:38:21.627Z,6.20
2023-03-05T15:40:48.252Z,13.05
2023-03-05T15:43:15.049Z,10.57
2023-03-05T15:45:41.439Z,12.75
2023-03-05T15:48:08.266Z,12.60
2023-03-05T15:50:34.693Z,10.05
2023-03-05T15:53:01.445Z,9.95
2023-03-05T15:55:27.858Z,8.65
2023-03-05T15:57:54.366Z,9.18
2023-03-05T16:00:24.852Z,9.85
2023-03-05T16:02:52.078Z,9.43
2023-03-05T16:05:19.745Z,10.40
2023-03-05T16:07:49.170Z,10.68
2023-03-05T16:10:20.332Z,10.20
2023-03-05T16:12:48.264Z,12.82
2023-03-05T16:17:44.024Z,11.48
2023-03-05T16:20:10.960Z,12.15
2023-03-05T16:22:37.290Z,11.48
2023-03-05T16:25:03.999Z,47.03
2023-03-05T16:27:30.385Z,23.80
2023-03-05T16:29:57.979Z,20.58
2023-03-05T16:32:24.570Z,17.48
2023-03-05T16:34:51.436Z,18.83
2023-03-05T16:37:19.326Z,25.05
2023-03-05T16:42:13.606Z,27.55
2023-03-05T16:47:07.530Z,16.65
2023-03-05T16:49:35.463Z,11.75
2023-03-05T16:54:44.555Z,18.10
2023-03-05T16:57:11.266Z,14.48
2023-03-05T16:59:37.736Z,13.82
2023-03-05T17:02:04.737Z,19.08
2023-03-05T17:04:31.360Z,13.80
2023-03-05T17:06:57.736Z,13.95
2023-03-05T17:09:24.591Z,12.93
2023-03-05T17:11:51.835Z,15.57
2023-03-05T17:14:18.272Z,14.98
2023-03-05T17:16:45.026Z,16.10
2023-03-05T17:19:11.674Z,13.07
2023-03-05T17:21:40.525Z,12.60
2023-03-05T17:24:08.197Z,12.45
2023-03-05T17:26:36.471Z,12.73
2023-03-05T17:29:04.009Z,11.32
2023-03-05T17:31:30.562Z,9.93
2023-03-05T17:33:57.140Z,12.38
2023-03-05T17:36:23.991Z,10.40
2023-03-05T17:38:50.858Z,12.38
2023-03-05T17:41:17.707Z,14.60
2023-03-05T17:43:44.176Z,14.13
2023-03-05T17:46:11.025Z,15.43
2023-03-05T17:48:39.145Z,15.50
2023-03-05T17:51:06.388Z,19.60
2023-03-05T17:53:32.757Z,29.60
2023-03-05T17:55:59.119Z,14.93
2023-03-05T17:58:26.582Z,17.77
2023-03-05T18:00:52.994Z,13.20
2023-03-05T18:03:20.460Z,15.52
2023-03-05T18:05:46.789Z,14.18
2023-03-05T18:08:13.380Z,13.38
2023-03-05T18:10:39.749Z,15.55
2023-03-05T18:13:06.059Z,15.00
2023-03-05T18:15:32.401Z,15.88
2023-03-05T18:17:58.795Z,15.77
2023-03-05T18:20:32.997Z,17.92
2023-03-05T18:22:59.993Z,15.57
2023-03-05T18:25:31.005Z,19.02
2023-03-05T18:28:01.438Z,15.93
2023-03-05T18:30:28.488Z,15.10
2023-03-05T18:32:55.313Z,14.50
2023-03-05T18:35:21.888Z,15.80
2023-03-05T18:37:48.279Z,14.98
2023-03-05T18:40:19.624Z,14.07
2023-03-05T18:42:46.098Z,15.32
2023-03-05T18:45:16.093Z,25.58
2023-03-05T18:47:42.547Z,18.05
2023-03-05T18:50:14.870Z,17.35
2023-03-05T18:52:41.931Z,18.00
2023-03-05T18:55:09.180Z,18.83
2023-03-05T18:57:35.642Z,18.02
2023-03-05T19:00:02.020Z,17.70
2023-03-05T19:02:28.490Z,16.80
2023-03-05T19:04:54.854Z,17.92
2023-03-05T19:07:21.354Z,19.08
2023-03-05T19:09:59.017Z,17.45
2023-03-05T19:12:30.945Z,21.20
2023-03-05T19:14:58.142Z,22.42
2023-03-05T19:17:24.482Z,22.45
2023-03-05T19:19:51.775Z,21.17
2023-03-05T19:22:18.296Z,22.27
2023-03-05T19:24:44.654Z,22.30
2023-03-05T19:27:13.086Z,27.10
2023-03-05T19:29:40.604Z,22.27
2023-03-05T19:32:08.163Z,23.88
2023-03-05T19:34:34.716Z,20.27
2023-03-05T19:37:01.122Z,20.00
2023-03-05T19:39:27.448Z,19.88
2023-03-05T19:41:53.776Z,20.63
2023-03-05T19:44:20.215Z,18.75
2023-03-05T19:46:48.435Z,18.55
2023-03-05T19:49:15.977Z,17.58
2023-03-05T19:51:43.769Z,18.80
2023-03-05T19:54:10.773Z,19.63
2023-03-05T19:56:37.949Z,18.52
2023-03-05T19:59:04.500Z,17.40
2023-03-05T20:01:30.917Z,16.10
2023-03-05T20:03:57.957Z,17.42
2023-03-05T20:06:24.961Z,17.58
2023-03-05T20:08:51.330Z,27.70
2023-03-05T20:11:18.419Z,29.02
2023-03-05T20:13:45.166Z,24.83
2023-03-05T20:16:15.851Z,24.83
2023-03-05T20:18:42.263Z,20.42
2023-03-05T20:21:08.597Z,22.05
2023-03-05T20:23:34.985Z,17.98
2023-03-05T20:26:02.793Z,18.23
2023-03-05T20:28:29.150Z,15.55
2023-03-05T20:30:56.941Z,15.90
2023-03-05T20:33:23.666Z,30.20
2023-03-05T20:35:50.216Z,17.17
2023-03-05T20:38:42.751Z,15.35
2023-03-05T20:41:10.790Z,15.43
2023-03-05T20:46:03.798Z,16.55
2023-03-05T20:48:31.719Z,14.43
2023-03-05T20:51:00.572Z,13.15
2023-03-05T20:53:27.432Z,13.27
2023-03-05T20:55:53.751Z,14.48
2023-03-05T20:58:20.063Z,14.40
2023-03-05T21:00:46.484Z,14.50
2023-03-05T21:03:12.918Z,13.80
2023-03-05T21:05:39.309Z,14.25
2023-03-05T21:08:05.747Z,17.23
2023-03-05T21:10:32.364Z,17.10
2023-03-05T21:13:00.781Z,13.13
2023-03-05T21:15:28.438Z,12.75
2023-03-05T21:17:55.266Z,12.50
2023-03-05T21:20:23.126Z,12.10
2023-03-05T21:22:49.500Z,12.25
2023-03-05T21:25:23.211Z,12.70
2023-03-05T21:27:49.622Z,13.05
2023-03-05T21:30:17.068Z,11.88
2023-03-05T21:32:43.549Z,12.68
2023-03-05T21:35:14.075Z,12.70
2023-03-05T21:37:42.567Z,11.65
2023-03-05T21:40:10.549Z,12.32
2023-03-05T21:45:03.357Z,12.20
2023-03-05T21:47:29.709Z,12.25
2023-03-05T21:49:56.087Z,13.07
2023-03-05T21:52:22.589Z,12.52
2023-03-05T21:54:48.941Z,11.23
2023-03-05T21:57:15.263Z,12.52
2023-03-05T21:59:41.965Z,13.40
2023-03-05T22:02:12.211Z,11.85
2023-03-05T22:04:38.709Z,11.88
2023-03-05T22:07:06.510Z,11.82
2023-03-05T22:09:33.044Z,12.98
2023-03-05T22:11:59.543Z,13.15
2023-03-05T22:14:25.883Z,12.70
2023-03-05T22:16:53.673Z,12.25
2023-03-05T22:19:20.312Z,11.98
2023-03-05T22:21:46.630Z,12.77
2023-03-05T22:24:12.999Z,12.88
2023-03-05T22:26:40.135Z,11.95
2023-03-05T22:29:08.643Z,12.70
2023-03-05T22:31:35.073Z,13.02
2023-03-05T22:34:01.520Z,11.82
2023-03-05T22:36:27.867Z,11.25
2023-03-05T22:38:54.221Z,11.80
2023-03-05T22:41:21.216Z,11.43
2023-03-05T22:43:48.445Z,10.38
2023-03-05T22:46:16.533Z,11.18
2023-03-05T22:48:43.294Z,11.50
2023-03-05T22:51:10.425Z,11.75
2023-03-05T22:53:37.053Z,10.40
2023-03-05T22:56:07.635Z,10.10
2023-03-05T22:58:34.052Z,9.65
2023-03-05T23:01:00.491Z,10.35
2023-03-05T23:03:26.982Z,9.98
2023-03-05T23:05:53.613Z,10.07
2023-03-05T23:08:20.118Z,10.93
2023-03-05T23:10:46.504Z,11.32
2023-03-05T23:13:12.912Z,75.85
2023-03-05T23:15:39.303Z,86.60
2023-03-05T23:18:06.663Z,109.03
2023-03-05T23:20:34.504Z,66.35
2023-03-05T23:23:01.211Z,67.80
2023-03-05T23:25:29.065Z,44.40
2023-03-05T23:27:55.481Z,60.20
2023-03-05T23:30:22.796Z,39.70
2023-03-05T23:32:49.238Z,40.65
2023-03-05T23:35:17.119Z,54.05
2023-03-05T23:37:43.482Z,81.13
2023-03-05T23:40:12.657Z,64.10
2023-03-05T23:42:39.125Z,26.88
2023-03-05T23:45:06.684Z,32.50
2023-03-05T23:47:36.227Z,27.05
2023-03-05T23:50:03.792Z,14.60
2023-03-05T23:52:30.145Z,12.05
2023-03-05T23:54:56.469Z,11.75
2023-03-05T23:57:22.836Z,14.25
2023-03-05T23:59:49.216Z,14.32
